Time;durP1;ratioP1;P1;durP2;ratioP2;P2;SDS_P1;SDS_P2;PMS_P1;PMS_P2;Temp;Humidity;BMP_temperature;BMP_pressure;BME280_temperature;BME280_humidity;BME280_pressure;Samples;Min_cycle;Max_cycle;Signal;HPM_P1;HPM_P2
2024/04/03 00:00:32;;;;;;;2.33;1.38;;;;;;;9.64;100.00;99950.53;8400459;28;20076;-83
2024/04/03 00:04:35;;;;;;;2.67;1.42;;;;;;;9.71;100.00;99951.44;8399204;28;20059;-84
2024/04/03 00:08:36;;;;;;;1.75;1.30;;;;;;;9.70;100.00;99947.09;8399363;28;20041;-83
2024/04/03 00:12:37;;;;;;;2.97;1.60;;;;;;;9.76;100.00;99938.34;8402733;28;20057;-84
2024/04/03 00:16:38;;;;;;;3.47;1.27;;;;;;;9.72;100.00;99936.19;8385743;28;20049;-83
2024/04/03 00:20:38;;;;;;;3.35;2.05;;;;;;;9.89;100.00;99937.59;8385663;28;20049;-83
2024/04/03 00:24:39;;;;;;;4.82;1.70;;;;;;;9.88;100.00;99941.31;8388012;28;20037;-83
2024/04/03 00:28:40;;;;;;;2.28;1.30;;;;;;;9.74;100.00;99939.53;8386640;28;20057;-83
2024/04/03 00:32:41;;;;;;;3.55;1.92;;;;;;;9.85;100.00;99942.53;8386143;28;20033;-84
2024/04/03 00:36:42;;;;;;;3.53;2.22;;;;;;;9.89;100.00;99954.53;8385230;28;20057;-84
2024/04/03 00:40:42;;;;;;;3.67;1.83;;;;;;;9.91;99.46;99940.94;8378721;28;20053;-85
2024/04/03 00:44:48;;;;;;;1.95;1.33;;;;;;;9.88;99.19;99936.78;8374179;28;20147;-84
2024/04/03 00:48:48;;;;;;;3.65;1.60;;;;;;;9.90;98.40;99929.41;8388787;28;20049;-83
2024/04/03 00:52:49;;;;;;;3.45;1.67;;;;;;;9.92;98.15;99945.28;8396559;28;20494;-84
2024/04/03 00:56:51;;;;;;;4.03;2.25;;;;;;;10.08;96.84;99939.66;8385227;28;20057;-83
2024/04/03 01:00:51;;;;;;;4.97;2.75;;;;;;;10.04;96.32;99924.97;8366083;28;20107;-83
2024/04/03 01:04:52;;;;;;;4.15;2.22;;;;;;;10.02;97.16;99932.38;8366001;28;20104;-83
2024/04/03 01:08:52;;;;;;;8.32;2.75;;;;;;;9.92;97.68;99926.53;8366312;28;20075;-83
2024/04/03 01:12:56;;;;;;;2.47;1.58;;;;;;;10.01;96.98;99924.53;8366210;28;20076;-84
2024/04/03 01:16:57;;;;;;;3.30;1.95;;;;;;;10.00;97.84;99929.06;8383152;28;20485;-84
2024/04/03 01:20:58;;;;;;;3.35;2.22;;;;;;;10.01;97.13;99929.91;8382530;28;20060;-85
2024/04/03 01:24:58;;;;;;;3.88;2.30;;;;;;;9.93;98.86;99939.72;8382069;28;20064;-84
2024/04/03 01:28:59;;;;;;;6.22;2.67;;;;;;;9.99;100.00;99919.38;8366167;28;20053;-84
2024/04/03 01:33:02;;;;;;;3.80;1.83;;;;;;;9.93;99.67;99912.97;8381511;28;20048;-84
2024/04/03 01:37:02;;;;;;;4.00;2.33;;;;;;;9.86;99.46;99913.91;8384014;28;20053;-84
2024/04/03 01:41:03;;;;;;;7.57;2.70;;;;;;;9.98;99.04;99918.56;8382920;28;20057;-84
2024/04/03 01:45:04;;;;;;;4.35;2.13;;;;;;;9.86;100.00;99911.25;8385898;28;20053;-84
2024/04/03 01:49:05;;;;;;;5.50;2.83;;;;;;;9.85;99.27;99910.41;8356414;28;20049;-85
2024/04/03 01:53:05;;;;;;;4.65;2.78;;;;;;;9.85;99.11;99907.72;8338578;28;20106;-85
2024/04/03 01:57:06;;;;;;;2.45;1.52;;;;;;;9.85;98.94;99907.72;8391177;28;20059;-84
2024/04/03 02:01:07;;;;;;;2.42;1.95;;;;;;;9.85;98.41;99909.59;8342393;28;20049;-85
2024/04/03 02:05:07;;;;;;;3.88;2.67;;;;;;;9.96;98.35;99909.91;8396739;28;20052;-84
2024/04/03 02:09:08;;;;;;;3.42;1.75;;;;;;;9.83;99.64;99912.44;8394319;28;20045;-84
2024/04/03 02:13:09;;;;;;;3.63;2.63;;;;;;;9.88;99.49;99911.88;8396404;28;20049;-83
2024/04/03 02:17:09;;;;;;;6.88;2.83;;;;;;;9.86;99.58;99906.72;8390843;28;20488;-83
2024/04/03 02:21:10;;;;;;;6.53;3.00;;;;;;;9.93;99.26;99904.94;8381627;28;20071;-83
2024/04/03 02:25:11;;;;;;;4.60;2.45;;;;;;;9.73;100.00;99893.25;8381272;28;20060;-83
2024/04/03 02:29:15;;;;;;;4.55;2.70;;;;;;;9.85;99.87;99899.72;8391512;28;20128;-84
2024/04/03 02:33:15;;;;;;;5.18;3.38;;;;;;;9.81;100.00;99901.13;8363665;28;20520;-85
2024/04/03 02:37:16;;;;;;;4.47;2.78;;;;;;;9.84;100.00;99898.06;8364405;28;20114;-82
2024/04/03 02:41:17;;;;;;;2.85;2.05;;;;;;;9.93;99.98;99914.81;8384703;28;20036;-83
2024/04/03 02:45:17;;;;;;;4.35;2.30;;;;;;;9.73;100.00;99890.56;8389995;28;20053;-84
2024/04/03 02:49:18;;;;;;;7.57;3.63;;;;;;;9.87;100.00;99896.84;8392121;28;20053;-84
2024/04/03 02:53:19;;;;;;;5.38;3.15;;;;;;;9.80;100.00;99890.63;8400468;28;20053;-84
2024/04/03 02:57:19;;;;;;;4.25;2.80;;;;;;;9.83;100.00;99896.41;8377680;28;20045;-85
2024/04/03 03:01:20;;;;;;;4.18;2.10;;;;;;;9.77;100.00;99886.47;8364385;28;20037;-84
2024/04/03 03:05:20;;;;;;;5.47;3.42;;;;;;;9.83;100.00;99891.06;8393656;28;20053;-84
2024/04/03 03:09:22;;;;;;;5.85;3.60;;;;;;;9.87;99.86;99886.97;8374523;28;20053;-84
2024/04/03 03:13:28;;;;;;;4.75;3.47;;;;;;;9.83;100.00;99876.84;8400988;28;20056;-84
2024/04/03 03:17:29;;;;;;;5.78;3.75;;;;;;;9.89;99.89;99890.31;8386915;28;20056;-84
2024/04/03 03:21:29;;;;;;;7.43;3.25;;;;;;;9.79;100.00;99887.13;8397196;28;20044;-84
2024/04/03 03:25:30;;;;;;;7.32;3.78;;;;;;;9.78;100.00;99903.34;8391972;28;20064;-84
2024/04/03 03:29:30;;;;;;;5.18;2.80;;;;;;;9.79;100.00;99895.13;8391145;28;20053;-85
2024/04/03 03:33:31;;;;;;;3.40;2.25;;;;;;;9.68;100.00;99904.50;8392177;28;20112;-83
2024/04/03 03:37:32;;;;;;;9.18;4.35;;;;;;;9.81;100.00;99908.31;8394938;28;20076;-83
2024/04/03 03:41:32;;;;;;;5.22;3.08;;;;;;;9.71;100.00;99911.31;8382835;28;20049;-83
2024/04/03 03:45:42;;;;;;;3.80;2.42;;;;;;;9.66;100.00;99911.06;8347661;28;20057;-84
2024/04/03 03:54:03;;;;;;;6.30;3.53;;;;;;;9.73;100.00;99921.84;8363914;28;20054;-84
2024/04/03 03:58:03;;;;;;;8.52;4.82;;;;;;;9.81;100.00;99908.31;8390184;28;20464;-84
2024/04/03 04:02:07;;;;;;;6.68;3.85;;;;;;;9.67;100.00;99928.75;8380859;28;20071;-84
2024/04/03 04:06:08;;;;;;;5.25;3.72;;;;;;;9.80;100.00;99920.88;8377168;28;20049;-84
2024/04/03 04:10:08;;;;;;;5.40;3.75;;;;;;;9.78;100.00;99930.13;8398712;28;20103;-84
2024/04/03 04:14:09;;;;;;;8.52;4.03;;;;;;;9.76;100.00;99929.47;8379697;28;20057;-84
2024/04/03 04:18:10;;;;;;;7.90;2.95;;;;;;;9.70;100.00;99938.25;8383082;28;20057;-84
2024/04/03 04:22:12;;;;;;;10.60;3.28;;;;;;;9.69;100.00;99934.75;8399584;28;20048;-85
2024/04/03 04:26:12;;;;;;;6.22;3.53;;;;;;;9.74;100.00;99944.91;8385932;28;20037;-84
2024/04/03 04:30:13;;;;;;;8.50;3.97;;;;;;;9.52;100.00;99952.06;8403171;28;20106;-84
2024/04/03 04:34:14;;;;;;;10.32;4.80;;;;;;;9.45;100.00;99965.34;8399585;28;20056;-83
2024/04/03 04:38:14;;;;;;;11.68;4.90;;;;;;;9.49;100.00;99974.66;8400717;28;20060;-84
2024/04/03 04:42:15;;;;;;;9.07;4.78;;;;;;;9.25;100.00;99980.34;8391866;28;20124;-84
2024/04/03 04:46:16;;;;;;;8.13;3.95;;;;;;;8.96;100.00;100000.72;8395167;28;20175;-83
2024/04/03 04:50:16;;;;;;;6.30;3.63;;;;;;;8.98;100.00;99988.00;8399191;28;20127;-83
2024/04/03 04:54:17;;;;;;;3.83;2.40;;;;;;;8.81;100.00;99985.69;8401562;28;20048;-84
2024/04/03 04:58:18;;;;;;;7.35;3.80;;;;;;;8.69;100.00;99980.81;8401385;28;20048;-84
2024/04/03 05:02:19;;;;;;;7.85;4.25;;;;;;;8.62;100.00;99985.22;8385589;28;20053;-83
2024/04/03 05:06:20;;;;;;;12.27;4.50;;;;;;;8.86;100.00;99991.34;8396977;28;20120;-84
2024/04/03 05:10:20;;;;;;;7.57;4.30;;;;;;;8.76;100.00;99997.75;8399085;28;20033;-84
2024/04/03 05:14:22;;;;;;;7.45;3.53;;;;;;;8.71;100.00;100002.84;8403224;28;20061;-83
2024/04/03 05:18:22;;;;;;;5.57;3.83;;;;;;;8.72;100.00;100004.50;8386633;28;20025;-85
2024/04/03 05:22:23;;;;;;;6.07;3.08;;;;;;;8.57;100.00;100006.31;8386740;28;20052;-85
2024/04/03 05:26:24;;;;;;;5.65;2.80;;;;;;;8.61;100.00;99998.75;8386870;28;20033;-84
2024/04/03 05:30:25;;;;;;;3.90;2.17;;;;;;;8.40;100.00;100005.63;8396648;28;20067;-85
2024/04/03 05:34:26;;;;;;;4.28;2.15;;;;;;;8.61;100.00;100001.44;8395393;28;20056;-83
2024/04/03 05:38:27;;;;;;;5.30;2.03;;;;;;;8.63;100.00;100018.09;8391863;28;20036;-86
2024/04/03 05:42:28;;;;;;;4.45;2.08;;;;;;;8.38;100.00;100023.66;8393925;28;20061;-84
2024/04/03 05:46:28;;;;;;;1.02;0.90;;;;;;;8.33;100.00;100026.03;8392256;28;20064;-84
2024/04/03 05:50:29;;;;;;;5.50;2.15;;;;;;;8.67;100.00;100014.03;8405591;28;20045;-85
2024/04/03 05:54:30;;;;;;;5.28;1.42;;;;;;;8.38;100.00;100018.34;8405588;28;20045;-84
2024/04/03 05:58:30;;;;;;;4.50;2.03;;;;;;;8.24;100.00;100011.06;8407195;28;20064;-84
2024/04/03 06:02:31;;;;;;;5.20;2.17;;;;;;;8.53;100.00;100023.72;8403926;28;20394;-85
2024/04/03 06:06:32;;;;;;;3.40;2.10;;;;;;;8.42;100.00;100026.81;8391001;28;20053;-86
2024/04/03 06:10:35;;;;;;;3.65;2.13;;;;;;;8.42;100.00;100030.31;8406587;28;20055;-85
2024/04/03 06:14:36;;;;;;;7.00;3.08;;;;;;;8.69;100.00;100023.56;8408420;28;20057;-85
2024/04/03 06:18:37;;;;;;;5.35;2.70;;;;;;;8.85;100.00;100017.22;8405104;28;20106;-86
2024/04/03 06:22:39;;;;;;;9.55;2.33;;;;;;;8.78;100.00;100024.28;8404791;28;20044;-84
2024/04/03 06:26:40;;;;;;;7.88;2.60;;;;;;;8.68;100.00;100026.41;8385264;28;20048;-86
2024/04/03 06:30:40;;;;;;;7.50;3.20;;;;;;;8.85;100.00;100024.38;8375732;28;20053;-85
2024/04/03 06:34:41;;;;;;;6.50;3.22;;;;;;;8.62;100.00;100022.59;8366767;28;20055;-85
2024/04/03 06:38:43;;;;;;;7.68;3.60;;;;;;;8.74;100.00;100036.34;8376247;28;20075;-85
2024/04/03 06:42:44;;;;;;;11.95;3.55;;;;;;;8.86;100.00;100040.25;8378655;28;20449;-85
2024/04/03 06:46:46;;;;;;;7.97;3.58;;;;;;;8.91;100.00;100050.38;8369693;28;20402;-85
2024/04/03 06:50:51;;;;;;;7.53;3.60;;;;;;;9.06;100.00;100035.19;8380990;28;20045;-85
2024/04/03 06:54:54;;;;;;;7.55;3.05;;;;;;;8.79;100.00;100051.81;8364067;28;20081;-85
2024/04/03 06:58:55;;;;;;;5.03;3.17;;;;;;;8.93;100.00;100051.84;8362727;28;20085;-85
2024/04/03 07:02:56;;;;;;;6.07;3.58;;;;;;;9.29;100.00;100053.78;8380227;28;20052;-85
2024/04/03 07:06:58;;;;;;;18.90;6.50;;;;;;;9.17;100.00;100048.06;8362269;28;20064;-84
2024/04/03 07:10:59;;;;;;;7.93;4.43;;;;;;;9.05;100.00;100062.94;8363816;28;20103;-84
2024/04/03 07:14:59;;;;;;;10.77;4.68;;;;;;;9.23;100.00;100071.41;8360283;28;20057;-83
2024/04/03 07:19:01;;;;;;;7.53;3.78;;;;;;;8.86;100.00;100064.28;8375452;28;20045;-84
2024/04/03 07:23:01;;;;;;;10.35;4.90;;;;;;;9.05;100.00;100071.78;8377066;28;20508;-84
2024/04/03 07:27:02;;;;;;;10.30;5.15;;;;;;;9.28;100.00;100073.53;8377366;28;20060;-84
2024/04/03 07:31:03;;;;;;;10.23;4.82;;;;;;;9.30;100.00;100075.00;8377853;28;20102;-85
2024/04/03 07:35:06;;;;;;;8.80;4.53;;;;;;;9.13;100.00;100088.72;8360633;28;20087;-85
2024/04/03 07:39:07;;;;;;;10.30;4.97;;;;;;;9.44;100.00;100088.53;8361846;28;20413;-85
2024/04/03 07:43:07;;;;;;;7.38;4.57;;;;;;;9.55;100.00;100099.63;8364651;28;20509;-85
2024/04/03 07:47:09;;;;;;;11.80;5.40;;;;;;;9.50;100.00;100095.81;8366621;28;20057;-85
2024/04/03 07:51:11;;;;;;;7.05;4.28;;;;;;;9.80;100.00;100104.66;8378921;28;20073;-84
2024/04/03 07:55:14;;;;;;;9.60;4.55;;;;;;;10.09;100.00;100095.72;8375122;28;20095;-84
2024/04/03 07:59:14;;;;;;;6.30;3.90;;;;;;;10.22;100.00;100103.91;8357271;28;20080;-81
2024/04/03 08:03:15;;;;;;;8.63;4.18;;;;;;;10.95;100.00;100110.78;8374035;28;20061;-82
2024/04/03 08:07:15;;;;;;;4.47;2.65;;;;;;;10.78;100.00;100101.38;8381773;28;20104;-82
2024/04/03 08:11:16;;;;;;;5.55;2.58;;;;;;;10.57;100.00;100110.22;8379765;28;20060;-80
2024/04/03 08:15:17;;;;;;;6.82;3.65;;;;;;;10.60;100.00;100117.91;8379124;28;20057;-80
2024/04/03 08:19:17;;;;;;;4.03;2.22;;;;;;;10.08;100.00;100113.63;8361529;28;20182;-80
2024/04/03 08:23:18;;;;;;;3.28;2.75;;;;;;;10.70;100.00;100110.34;8378888;28;20068;-80
2024/04/03 08:27:19;;;;;;;6.60;2.75;;;;;;;10.45;100.00;100125.19;8378798;28;20068;-81
2024/04/03 08:31:21;;;;;;;5.63;2.50;;;;;;;10.77;100.00;100130.00;8384726;28;20114;-80
2024/04/03 08:35:23;;;;;;;4.47;1.77;;;;;;;10.65;100.00;100134.22;8384443;28;20065;-79
2024/04/03 08:39:24;;;;;;;7.55;3.15;;;;;;;11.10;100.00;100140.16;8366399;28;20059;-79
2024/04/03 08:43:25;;;;;;;5.07;2.75;;;;;;;10.87;100.00;100143.91;8391999;28;20060;-80
2024/04/03 08:47:26;;;;;;;7.35;2.17;;;;;;;10.88;100.00;100142.88;8368585;28;20056;-80
2024/04/03 08:51:31;;;;;;;6.18;2.70;;;;;;;11.08;100.00;100136.84;8368825;28;20049;-81
2024/04/03 08:55:33;;;;;;;5.03;2.38;;;;;;;10.67;100.00;100134.84;8371805;28;20056;-80
2024/04/03 08:59:38;;;;;;;4.35;2.60;;;;;;;11.51;95.83;100148.28;8369051;28;20054;-80
2024/04/03 09:03:39;;;;;;;6.43;2.92;;;;;;;11.26;94.48;100147.06;8381161;28;20053;-80
2024/04/03 09:07:40;;;;;;;8.90;3.80;;;;;;;11.88;96.67;100144.38;8378957;28;20056;-81
2024/04/03 09:11:40;;;;;;;3.20;2.40;;;;;;;11.19;94.46;100157.75;8377021;28;20049;-79
2024/04/03 09:15:41;;;;;;;7.72;3.70;;;;;;;11.48;96.41;100156.75;8377381;28;20098;-79
2024/04/03 09:19:49;;;;;;;6.80;3.80;;;;;;;11.72;92.14;100160.78;8370161;28;20049;-80
2024/04/03 09:23:50;;;;;;;10.52;5.32;;;;;;;11.68;90.84;100151.47;8344721;28;20102;-80
2024/04/03 09:28:15;;;;;;;7.78;4.95;;;;;;;11.54;91.79;100147.06;8364828;28;20504;-82
2024/04/03 09:32:16;;;;;;;9.18;4.57;;;;;;;11.68;97.09;100156.84;8375035;28;20076;-79
2024/04/03 09:36:17;;;;;;;6.10;3.80;;;;;;;12.42;92.53;100153.44;8372769;28;20056;-79
2024/04/03 09:40:22;;;;;;;10.98;4.82;;;;;;;12.28;89.39;100157.94;8368589;28;20135;-81
2024/04/03 09:44:25;;;;;;;5.70;3.53;;;;;;;11.29;90.65;100170.84;8337510;28;20083;-81
2024/04/03 09:48:29;;;;;;;5.88;3.33;;;;;;;11.97;90.50;100155.75;8379659;28;20087;-81
2024/04/03 09:52:30;;;;;;;5.65;3.10;;;;;;;11.92;89.44;100164.41;8379924;28;20103;-80
2024/04/03 09:56:31;;;;;;;11.00;3.80;;;;;;;11.80;89.57;100162.50;8373031;28;20089;-79
2024/04/03 10:00:32;;;;;;;8.30;4.03;;;;;;;11.67;89.88;100153.34;8356796;28;20523;-79
2024/04/03 10:04:34;;;;;;;8.93;4.60;;;;;;;12.80;86.05;100156.41;8373820;28;20049;-80
2024/04/03 10:08:45;;;;;;;7.85;3.30;;;;;;;12.35;87.62;100156.97;8357068;28;20099;-80
2024/04/03 10:12:47;;;;;;;10.15;4.70;;;;;;;12.29;88.20;100168.50;8373758;28;20128;-80
2024/04/03 10:16:48;;;;;;;9.00;3.53;;;;;;;11.77;87.25;100171.75;8379520;28;20088;-79
2024/04/03 10:20:50;;;;;;;8.27;4.35;;;;;;;11.63;90.78;100172.72;8379105;28;20041;-80
2024/04/03 10:24:51;;;;;;;12.43;4.38;;;;;;;12.15;87.38;100177.56;8363045;28;20088;-81
2024/04/03 10:28:51;;;;;;;9.15;4.00;;;;;;;11.69;88.70;100178.13;8379399;28;20052;-80
2024/04/03 10:32:53;;;;;;;6.68;3.92;;;;;;;11.76;88.52;100173.59;8379725;28;20104;-80
2024/04/03 10:36:54;;;;;;;8.77;4.22;;;;;;;11.94;88.46;100180.34;8381943;28;20096;-79
2024/04/03 10:40:58;;;;;;;10.48;4.30;;;;;;;11.94;93.17;100178.47;8378509;28;20049;-80
2024/04/03 10:45:01;;;;;;;6.50;3.75;;;;;;;11.93;89.39;100176.81;8377545;28;20096;-82
2024/04/03 10:49:01;;;;;;;6.80;3.65;;;;;;;11.52;95.02;100190.19;8384722;28;20057;-79
2024/04/03 10:53:02;;;;;;;9.05;3.88;;;;;;;11.63;96.03;100188.81;8386812;28;20088;-80
2024/04/03 10:57:04;;;;;;;8.30;3.83;;;;;;;11.57;99.22;100189.59;8363403;28;20061;-81
2024/04/03 11:01:05;;;;;;;25.02;14.60;;;;;;;11.84;97.50;100187.94;8380448;28;20073;-80
2024/04/03 11:05:06;;;;;;;9.07;4.45;;;;;;;11.41;96.17;100188.03;8378785;28;20102;-80
2024/04/03 11:09:07;;;;;;;10.35;4.32;;;;;;;11.62;98.10;100182.59;8379463;28;20053;-81
2024/04/03 11:13:09;;;;;;;6.97;3.70;;;;;;;11.63;97.23;100188.81;8379333;28;20087;-80
2024/04/03 11:17:11;;;;;;;8.73;4.53;;;;;;;11.31;98.33;100195.63;8378796;28;20084;-79
2024/04/03 11:21:12;;;;;;;7.72;3.65;;;;;;;11.57;98.80;100198.47;8378225;28;20087;-81
2024/04/03 11:25:12;;;;;;;9.00;4.03;;;;;;;11.85;98.74;100193.09;8377180;28;20056;-80
2024/04/03 11:29:30;;;;;;;7.35;3.53;;;;;;;11.67;98.08;100200.81;8378406;28;20098;-80
2024/04/03 11:33:34;;;;;;;7.80;3.92;;;;;;;11.77;99.01;100202.09;8393557;28;20045;-81
2024/04/03 11:37:35;;;;;;;6.75;3.22;;;;;;;11.30;100.00;100218.91;8378103;28;20088;-80
2024/04/03 11:41:35;;;;;;;8.13;3.60;;;;;;;11.07;100.00;100212.94;8380263;28;20103;-82
2024/04/03 11:45:36;;;;;;;8.73;4.60;;;;;;;11.33;100.00;100210.47;8381077;28;20497;-85
2024/04/03 11:49:37;;;;;;;7.85;4.50;;;;;;;10.85;100.00;100222.84;8369822;28;20425;-83
2024/04/03 11:53:38;;;;;;;12.35;4.68;;;;;;;11.06;100.00;100222.00;8398447;28;20056;-82
2024/04/03 11:57:39;;;;;;;8.18;3.33;;;;;;;10.79;100.00;100228.97;8372522;28;20053;-83
2024/04/03 12:01:40;;;;;;;12.10;4.80;;;;;;;11.16;100.00;100228.69;8377435;28;20468;-83
2024/04/03 12:05:41;;;;;;;9.35;5.15;;;;;;;11.38;100.00;100228.66;8325341;28;20059;-84
2024/04/03 12:09:42;;;;;;;14.00;6.15;;;;;;;11.09;100.00;100224.28;8390785;28;20409;-85
2024/04/03 12:13:44;;;;;;;9.65;4.65;;;;;;;11.19;100.00;100235.53;8374993;28;20099;-87
2024/04/03 12:17:45;;;;;;;14.98;4.68;;;;;;;11.05;100.00;100228.38;8360621;28;20087;-84
2024/04/03 12:21:45;;;;;;;10.02;4.57;;;;;;;10.94;100.00;100229.75;8353526;28;20490;-83
2024/04/03 12:25:46;;;;;;;11.98;5.28;;;;;;;11.01;100.00;100225.25;8344247;28;20053;-84
2024/04/03 12:29:50;;;;;;;10.43;5.85;;;;;;;11.45;100.00;100221.47;8345979;28;20081;-83
2024/04/03 12:33:52;;;;;;;9.02;5.28;;;;;;;10.94;100.00;100227.06;8330040;28;20096;-84
2024/04/03 12:37:53;;;;;;;13.23;6.00;;;;;;;11.35;100.00;100223.69;8313731;28;20093;-83
2024/04/03 12:41:54;;;;;;;15.93;5.82;;;;;;;11.50;100.00;100224.44;8362005;28;20440;-83
2024/04/03 12:46:02;;;;;;;14.98;6.13;;;;;;;11.55;100.00;100221.16;8363180;28;20511;-83
2024/04/03 12:50:03;;;;;;;14.20;6.60;;;;;;;11.46;100.00;100224.00;8392834;28;20048;-84
2024/04/03 12:54:04;;;;;;;7.45;4.80;;;;;;;11.87;100.00;100223.25;8366774;28;20492;-83
2024/04/03 12:58:04;;;;;;;12.88;5.85;;;;;;;11.77;100.00;100220.88;8391772;28;20056;-83
2024/04/03 13:02:06;;;;;;;11.35;5.88;;;;;;;11.21;100.00;100232.66;8387285;28;20508;-83
2024/04/03 13:06:06;;;;;;;12.25;6.50;;;;;;;11.23;100.00;100234.13;8383557;28;20045;-83
2024/04/03 13:10:07;;;;;;;12.93;6.25;;;;;;;11.54;100.00;100230.22;8364313;28;20585;-84
2024/04/03 13:14:08;;;;;;;15.40;5.72;;;;;;;11.54;100.00;100223.00;8383138;28;20060;-83
2024/04/03 13:18:09;;;;;;;14.73;6.65;;;;;;;11.11;100.00;100241.03;8390723;28;20049;-82
2024/04/03 13:22:14;;;;;;;17.13;7.07;;;;;;;11.63;100.00;100229.91;8385030;28;20049;-82
2024/04/03 13:26:15;;;;;;;9.15;6.18;;;;;;;11.71;100.00;100235.09;8375570;28;20115;-84
2024/04/03 13:30:16;;;;;;;12.52;6.47;;;;;;;12.07;100.00;100224.19;8395074;28;20041;-82
2024/04/03 13:34:18;;;;;;;16.23;7.45;;;;;;;12.35;100.00;100228.66;8379733;28;20481;-81
2024/04/03 13:38:18;;;;;;;12.40;6.40;;;;;;;12.20;100.00;100227.97;8377235;28;20126;-81
2024/04/03 13:42:19;;;;;;;10.27;5.82;;;;;;;12.37;100.00;100226.59;8375900;28;20045;-81
2024/04/03 13:46:20;;;;;;;18.55;6.55;;;;;;;12.12;100.00;100230.81;8359243;28;20505;-80
2024/04/03 13:50:21;;;;;;;17.90;8.60;;;;;;;12.40;100.00;100228.88;8378630;28;20496;-80
2024/04/03 13:54:21;;;;;;;18.25;7.28;;;;;;;12.64;99.88;100233.69;8381878;28;20064;-80
2024/04/03 13:58:22;;;;;;;18.15;6.75;;;;;;;12.72;100.00;100235.38;8380444;28;20059;-80
2024/04/03 14:02:22;;;;;;;15.32;6.60;;;;;;;12.91;95.73;100223.84;8363395;28;20045;-79
2024/04/03 14:06:23;;;;;;;22.23;7.90;;;;;;;13.31;96.26;100223.06;8383679;28;20045;-79
2024/04/03 14:10:24;;;;;;;10.95;6.47;;;;;;;13.26;95.45;100227.22;8382185;28;20068;-80
2024/04/03 14:14:25;;;;;;;15.80;7.72;;;;;;;13.13;96.27;100221.78;8381117;28;20420;-79
2024/04/03 14:18:25;;;;;;;17.85;9.07;;;;;;;12.95;100.00;100218.88;8379280;28;20099;-79
2024/04/03 14:22:26;;;;;;;13.55;8.30;;;;;;;12.72;100.00;100219.25;8377916;28;20439;-79
2024/04/03 14:26:27;;;;;;;13.80;7.75;;;;;;;12.70;100.00;100221.31;8361235;28;20417;-79
2024/04/03 14:30:28;;;;;;;15.38;7.43;;;;;;;12.45;100.00;100220.19;8378178;28;20055;-80
2024/04/03 14:34:28;;;;;;;16.55;8.35;;;;;;;12.48;100.00;100223.31;8378227;28;20057;-81
2024/04/03 14:38:29;;;;;;;11.18;7.43;;;;;;;12.47;100.00;100227.03;8380969;28;20053;-80
2024/04/03 14:42:30;;;;;;;14.18;7.70;;;;;;;12.08;100.00;100228.53;8375506;28;20048;-80
2024/04/03 14:46:30;;;;;;;13.90;6.50;;;;;;;11.95;100.00;100231.13;8402468;28;20055;-81
2024/04/03 14:50:32;;;;;;;15.23;6.53;;;;;;;11.44;100.00;100233.25;8405990;28;20051;-84
2024/04/03 14:54:36;;;;;;;13.32;6.75;;;;;;;11.27;100.00;100232.69;8379281;28;20053;-85
2024/04/03 14:58:36;;;;;;;17.33;6.65;;;;;;;11.26;100.00;100228.34;8393226;28;20057;-84
2024/04/03 15:02:37;;;;;;;9.48;5.38;;;;;;;11.17;100.00;100229.53;8389161;28;20052;-83
2024/04/03 15:06:38;;;;;;;12.90;6.55;;;;;;;11.22;100.00;100226.25;8397209;28;20438;-83
2024/04/03 15:10:38;;;;;;;14.70;6.53;;;;;;;11.35;100.00;100224.53;8390598;28;20045;-83
2024/04/03 15:14:39;;;;;;;9.80;6.10;;;;;;;11.25;100.00;100223.19;8380408;28;20536;-83
2024/04/03 15:18:40;;;;;;;16.95;6.60;;;;;;;11.39;100.00;100216.91;8386306;28;20056;-83
2024/04/03 15:22:40;;;;;;;14.45;6.47;;;;;;;11.27;100.00;100205.88;8383107;28;20049;-83
2024/04/03 15:26:44;;;;;;;12.77;5.70;;;;;;;11.63;100.00;100218.34;8382735;28;20055;-83
2024/04/03 15:30:44;;;;;;;9.65;4.88;;;;;;;11.43;100.00;100216.31;8381669;28;20194;-84
2024/04/03 15:34:45;;;;;;;9.95;4.75;;;;;;;11.44;100.00;100212.59;8383612;28;20059;-82
2024/04/03 15:38:47;;;;;;;5.95;4.20;;;;;;;11.71;100.00;100207.44;8381351;28;20088;-83
2024/04/03 15:42:48;;;;;;;9.13;3.95;;;;;;;11.62;100.00;100214.78;8365022;28;20095;-82
2024/04/03 15:46:49;;;;;;;6.63;4.50;;;;;;;11.52;100.00;100224.22;8397000;28;20142;-82
2024/04/03 15:50:49;;;;;;;6.65;4.50;;;;;;;11.58;100.00;100213.53;8394390;28;20072;-83
2024/04/03 15:54:50;;;;;;;6.38;4.05;;;;;;;11.64;100.00;100212.78;8379789;28;20053;-84
2024/04/03 15:58:52;;;;;;;11.18;4.82;;;;;;;11.83;100.00;100221.19;8391229;28;20110;-82
2024/04/03 16:02:54;;;;;;;7.60;4.65;;;;;;;11.47;100.00;100216.78;8376749;28;20095;-82
2024/04/03 16:06:54;;;;;;;6.65;5.10;;;;;;;11.51;100.00;100215.34;8362461;28;20134;-85
2024/04/03 16:10:55;;;;;;;9.15;4.22;;;;;;;11.59;100.00;100217.88;8378037;28;20045;-83
2024/04/03 16:14:56;;;;;;;12.05;4.65;;;;;;;11.84;100.00;100218.28;8379020;28;20053;-84
2024/04/03 16:18:56;;;;;;;7.35;5.32;;;;;;;11.96;100.00;100214.00;8394360;28;20444;-82
2024/04/03 16:22:57;;;;;;;8.98;5.32;;;;;;;11.78;100.00;100217.19;8387435;28;20099;-83
2024/04/03 16:26:58;;;;;;;9.40;5.15;;;;;;;11.73;100.00;100214.25;8387965;28;20540;-83
2024/04/03 16:30:59;;;;;;;10.00;4.93;;;;;;;11.68;100.00;100216.72;8385767;28;20057;-83
2024/04/03 16:34:59;;;;;;;8.52;5.53;;;;;;;11.87;100.00;100211.69;8384016;28;20060;-82
2024/04/03 16:39:00;;;;;;;9.70;5.80;;;;;;;11.76;100.00;100215.72;8395470;28;20060;-82
2024/04/03 16:43:01;;;;;;;8.30;5.38;;;;;;;11.86;100.00;100223.47;8382394;28;20052;-83
2024/04/03 16:47:01;;;;;;;8.70;5.32;;;;;;;11.60;100.00;100214.16;8387341;28;20052;-83
2024/04/03 16:51:02;;;;;;;9.75;4.85;;;;;;;11.63;100.00;100216.47;8364305;28;20053;-82
2024/04/03 16:55:04;;;;;;;8.98;4.57;;;;;;;11.64;100.00;100231.56;8380791;28;20098;-82
2024/04/03 16:59:05;;;;;;;11.88;5.43;;;;;;;11.78;100.00;100227.09;8377860;28;20100;-83
2024/04/03 17:03:05;;;;;;;7.50;5.63;;;;;;;11.70;100.00;100225.41;8377881;28;20091;-83
2024/04/03 17:07:06;;;;;;;14.20;6.03;;;;;;;11.65;100.00;100233.22;8377013;28;20053;-83
2024/04/03 17:11:09;;;;;;;12.18;6.10;;;;;;;11.57;100.00;100232.53;8380003;28;20052;-84
2024/04/03 17:15:10;;;;;;;10.40;5.68;;;;;;;11.54;100.00;100231.06;8384279;28;20060;-83
2024/04/03 17:19:11;;;;;;;9.75;6.40;;;;;;;11.52;100.00;100230.44;8379298;28;20111;-82
2024/04/03 17:23:12;;;;;;;12.07;6.55;;;;;;;11.44;100.00;100234.06;8379739;28;20064;-83
2024/04/03 17:27:13;;;;;;;11.02;6.47;;;;;;;11.39;100.00;100233.84;8380319;28;20084;-83
2024/04/03 17:31:14;;;;;;;11.88;6.47;;;;;;;11.41;100.00;100237.16;8379204;28;20056;-82
2024/04/03 17:35:14;;;;;;;8.05;5.70;;;;;;;11.29;100.00;100235.22;8341223;28;20057;-83
2024/04/03 17:39:16;;;;;;;10.75;5.90;;;;;;;11.21;100.00;100240.69;8354484;28;20107;-82
2024/04/03 17:43:16;;;;;;;13.70;7.00;;;;;;;11.34;100.00;100233.59;8392476;28;20061;-83
2024/04/03 17:47:19;;;;;;;12.55;6.18;;;;;;;11.30;100.00;100242.22;8399670;28;20067;-82
2024/04/03 17:51:19;;;;;;;10.75;6.30;;;;;;;11.31;100.00;100241.22;8376777;28;20615;-81
2024/04/03 17:55:20;;;;;;;9.32;6.05;;;;;;;11.32;100.00;100245.53;8375311;28;20084;-82
2024/04/03 17:59:21;;;;;;;11.73;6.97;;;;;;;11.13;100.00;100255.91;8374442;28;20053;-82
2024/04/03 18:03:21;;;;;;;12.70;7.40;;;;;;;11.20;100.00;100247.91;8374748;28;20064;-84
2024/04/03 18:07:24;;;;;;;13.32;7.70;;;;;;;11.27;100.00;100258.69;8373254;28;20524;-82
2024/04/03 18:11:25;;;;;;;13.32;7.38;;;;;;;11.15;100.00;100261.91;8375077;28;20106;-82
2024/04/03 18:15:25;;;;;;;13.02;7.60;;;;;;;11.20;100.00;100266.69;8375454;28;20106;-83
2024/04/03 18:19:26;;;;;;;11.90;7.28;;;;;;;11.25;100.00;100256.19;8375283;28;20045;-83
2024/04/03 18:23:27;;;;;;;14.02;7.30;;;;;;;11.28;100.00;100268.38;8381929;28;20048;-82
2024/04/03 18:27:28;;;;;;;11.80;7.75;;;;;;;11.24;100.00;100265.25;8388720;28;20049;-83
2024/04/03 18:31:29;;;;;;;12.73;7.88;;;;;;;11.31;100.00;100263.50;8377312;28;20056;-83
2024/04/03 18:35:30;;;;;;;14.05;7.78;;;;;;;11.34;100.00;100265.78;8382126;28;20071;-83
2024/04/03 18:39:30;;;;;;;13.02;7.57;;;;;;;11.18;100.00;100272.25;8378704;28;20053;-83